»·PEaware :: SWA825 KLAS-KSFO

SWA825 :: KLAS-KSFO

FLIGHT INFORMATION

Flight Status: Arrived
Operator:
Southwest Airlines
More flights by this operator :: More flights under this callsign
Pilot: Michael F. (17294)
Aircraft: BOEING 737-800
(B738)
More flights by this aircraft type
Origin: KLAS McCarran Intl
United States
Destination: KSFO San Francisco Intl
United States
More flights between these airports :: More routes between these airports
Route: +SHEAD1 KENNO RUSME DYAMD3
File this flight plan on PilotEdge
Remarks: new on Pilotedge
Altitude:
(Current/Filed)
400ft
Speed:
(Current/Filed)
453kts
Departed: 20-Nov-17 02:10 PM
Arrived: 20-Nov-17 03:30 PM
Distance/Time
Traveled:
359nm/1:19
Distance/Time
To Go:
Arrived

Flight Plot

Page will automatically refresh every two minutes.

Flight plan parsing failed; only flown route is shown


Map Options




Map Legend


Flown Route
Filed Route
Departure Airport
Arrival Airport
Navaid (VOR, NDB)
Fix

Horizontal Profiles

Position Reports

Time Latitude Longitude Heading Altitude Ground
Speed
20-Nov-17 13:45 36.082236 -115.150576 334 2189ft 0kts
20-Nov-17 13:46 36.082236 -115.150576 334 2189ft 0kts
20-Nov-17 13:47 36.082236 -115.150576 334 2189ft 0kts
20-Nov-17 13:48 36.082236 -115.150576 334 2189ft 0kts
20-Nov-17 13:49 36.082236 -115.150576 334 2189ft 0kts
20-Nov-17 13:50 36.082236 -115.150576 334 2189ft 0kts
20-Nov-17 13:51 36.082236 -115.150576 334 2189ft 0kts
20-Nov-17 13:52 36.082236 -115.150576 334 2189ft 0kts
20-Nov-17 13:53 36.082236 -115.150576 334 2189ft 0kts
20-Nov-17 13:54 36.082236 -115.150576 334 2189ft 0kts
20-Nov-17 13:55 36.082236 -115.150576 334 2189ft 0kts
20-Nov-17 13:56 36.082236 -115.150576 334 2189ft 0kts
20-Nov-17 13:57 36.082236 -115.150576 334 2189ft 0kts
20-Nov-17 13:58 36.082236 -115.150576 334 2189ft 0kts
20-Nov-17 13:59 36.082236 -115.150576 334 2189ft 0kts
20-Nov-17 14:00 36.082236 -115.150576 334 2189ft 0kts
20-Nov-17 14:01 36.082238 -115.150577 334 2189ft 0kts
20-Nov-17 14:02 36.081670 -115.150184 309 2189ft 2kts
20-Nov-17 14:03 36.081606 -115.149370 245 2189ft 0kts
20-Nov-17 14:04 36.081605 -115.149371 245 2189ft 0kts
20-Nov-17 14:05 36.081407 -115.149564 177 2189ft 9kts
20-Nov-17 14:06 36.080563 -115.151139 178 2189ft 11kts
20-Nov-17 14:07 36.077890 -115.148619 93 2189ft 18kts
20-Nov-17 14:08 36.077539 -115.141983 89 2189ft 19kts
20-Nov-17 14:09 36.077539 -115.134289 89 2189ft 23kts
20-Nov-17 14:10 36.077550 -115.125797 89 2189ft 23kts
20-Nov-17 14:11 36.077460 -115.121500 135 2189ft 0kts
20-Nov-17 14:12 36.077459 -115.121498 135 2189ft 0kts
20-Nov-17 14:13 36.077458 -115.121497 135 2189ft 0kts
20-Nov-17 14:14 36.076789 -115.121231 176 2189ft 19kts
20-Nov-17 14:15 36.076171 -115.153272 268 2823ft 193kts
20-Nov-17 14:16 36.076184 -115.220944 270 6608ft 218kts
20-Nov-17 14:17 36.030321 -115.278093 188 7045ft 278kts
20-Nov-17 14:18 35.960142 -115.314733 220 7509ft 283kts
20-Nov-17 14:19 35.903579 -115.383365 226 9018ft 287kts
20-Nov-17 14:20 35.886848 -115.479445 271 10778ft 319kts
20-Nov-17 14:21 35.889432 -115.595868 271 11019ft 342kts
20-Nov-17 14:22 35.891708 -115.713397 271 13104ft 342kts
20-Nov-17 14:23 35.893655 -115.832578 272 16519ft 351kts
20-Nov-17 14:24 35.899961 -115.953493 291 19043ft 360kts
20-Nov-17 14:25 35.964909 -116.047774 312 19147ft 364kts
20-Nov-17 14:26 36.038334 -116.134493 313 20702ft 367kts
20-Nov-17 14:27 36.113656 -116.222174 313 23051ft 378kts
20-Nov-17 14:28 36.191479 -116.312188 313 25114ft 386kts
20-Nov-17 14:29 36.270121 -116.403052 313 27457ft 381kts
20-Nov-17 14:30 36.338298 -116.482480 313 29826ft 369kts
20-Nov-17 14:31 36.411604 -116.568202 312 32439ft 353kts
20-Nov-17 14:32 36.481752 -116.650236 312 34659ft 341kts
20-Nov-17 14:33 36.549813 -116.730114 312 36562ft 331kts
20-Nov-17 14:34 36.626026 -116.794162 321 38264ft 328kts
20-Nov-17 14:35 36.703083 -116.853278 321 39542ft 326kts
20-Nov-17 14:36 36.781092 -116.912970 321 40157ft 332kts
20-Nov-17 14:37 36.859220 -116.972768 321 40167ft 327kts
20-Nov-17 14:38 36.936674 -117.031811 320 40171ft 326kts
20-Nov-17 14:39 37.014260 -117.091243 320 40173ft 326kts
20-Nov-17 14:40 37.091597 -117.150477 320 40171ft 326kts
20-Nov-17 14:41 37.155749 -117.199945 320 40173ft 325kts
20-Nov-17 14:42 37.245719 -117.269565 320 40176ft 325kts
20-Nov-17 14:43 37.319576 -117.333051 313 40178ft 318kts
20-Nov-17 14:44 37.375671 -117.392813 313 40179ft 317kts
20-Nov-17 14:45 37.454203 -117.477031 312 40201ft 317kts
20-Nov-17 14:46 37.488886 -117.552515 279 40195ft 309kts
20-Nov-17 14:47 37.501835 -117.659672 280 40198ft 308kts
20-Nov-17 14:48 37.512444 -117.766614 279 40196ft 308kts
20-Nov-17 14:49 37.521837 -117.873561 279 40191ft 307kts
20-Nov-17 14:50 37.530849 -117.980984 279 40186ft 307kts
20-Nov-17 14:51 37.539765 -118.088000 279 40181ft 307kts
20-Nov-17 14:52 37.548343 -118.195091 278 40177ft 308kts
20-Nov-17 14:53 37.556755 -118.302861 278 40180ft 308kts
20-Nov-17 14:54 37.564989 -118.410270 278 40190ft 308kts
20-Nov-17 14:55 37.573156 -118.518420 278 40214ft 310kts
20-Nov-17 14:56 37.581213 -118.626563 278 40254ft 310kts
20-Nov-17 14:57 37.589196 -118.735187 278 40291ft 312kts
20-Nov-17 14:58 37.597135 -118.844611 278 40309ft 313kts
20-Nov-17 14:59 37.604963 -118.953888 277 40303ft 314kts
20-Nov-17 15:00 37.612701 -119.063415 277 40292ft 314kts
20-Nov-17 15:01 37.620362 -119.173282 277 40289ft 313kts
20-Nov-17 15:02 37.627897 -119.282804 277 40279ft 313kts
20-Nov-17 15:03 37.635321 -119.392246 277 40268ft 312kts
20-Nov-17 15:04 37.642646 -119.501715 276 40258ft 312kts
20-Nov-17 15:05 37.649837 -119.610687 276 40248ft 311kts
20-Nov-17 15:06 37.656934 -119.719823 276 40240ft 310kts
20-Nov-17 15:07 37.663890 -119.828318 276 40212ft 310kts
20-Nov-17 15:08 37.670747 -119.936816 276 40206ft 309kts
20-Nov-17 15:09 37.677902 -120.048344 276 38440ft 323kts
20-Nov-17 15:10 37.685232 -120.166939 275 35287ft 355kts
20-Nov-17 15:11 37.692628 -120.292507 275 32278ft 361kts
20-Nov-17 15:12 37.696658 -120.419512 267 29977ft 376kts
20-Nov-17 15:13 37.682385 -120.550637 264 27672ft 371kts
20-Nov-17 15:14 37.667258 -120.677856 262 25436ft 360kts
20-Nov-17 15:15 37.652643 -120.800847 262 23218ft 354kts
20-Nov-17 15:16 37.638001 -120.921757 261 21386ft 338kts
20-Nov-17 15:17 37.623162 -121.037665 261 19432ft 330kts
20-Nov-17 15:18 37.607889 -121.151293 261 17356ft 325kts
20-Nov-17 15:19 37.592841 -121.262419 261 15475ft 318kts
20-Nov-17 15:20 37.580268 -121.372845 262 13616ft 313kts
20-Nov-17 15:21 37.567763 -121.480378 262 11915ft 307kts
20-Nov-17 15:22 37.555797 -121.582024 262 11116ft 277kts
20-Nov-17 15:23 37.539417 -121.673606 254 10115ft 265kts
20-Nov-17 15:24 37.518579 -121.759800 254 9288ft 262kts
20-Nov-17 15:25 37.497245 -121.848652 253 8186ft 260kts
20-Nov-17 15:26 37.475987 -121.931187 252 7980ft 231kts
20-Nov-17 15:27 37.462450 -122.003647 282 7881ft 201kts
20-Nov-17 15:28 37.489757 -122.069785 296 6024ft 224kts
20-Nov-17 15:29 37.520319 -122.140892 294 3780ft 217kts
20-Nov-17 15:30 37.545505 -122.200705 294 2751ft 174kts
20-Nov-17 15:31 37.567509 -122.253051 296 1877ft 166kts
20-Nov-17 15:32 37.587381 -122.300339 297 1052ft 143kts
20-Nov-17 15:33 37.605420 -122.343940 298 346ft 139kts
20-Nov-17 15:34 37.621207 -122.381076 297 21ft 42kts
20-Nov-17 15:35 37.620031 -122.382889 117 21ft 15kts
20-Nov-17 15:36 37.618578 -122.381628 167 21ft 0kts
20-Nov-17 15:37 37.618578 -122.381628 167 21ft 0kts

Navigation Log

Ident Type
Flight plan parsing failed, navigation log unavailable